Gran Cañón, AZ

2:39 PM MST en Diciembre 18, 2014 (GMT -0700)
KAZGRAND3 | Change Station
CLOSE
Current Station
Estación meteorológica personal
Location: Grand Canyon, AZ
Altura: 6991 ft
Estaciones meteorológicas cercanas

Alt 6991 ft 36.05 °N, 112.12 °W | Updated 5 seconds ago

Muy nublado
Muy nublado
35.8 ° F
Sensación térmica 36 ° F
N
0.0
Viento Variable Viento desde ONO
Gusts 1.0 mph

Hoy
Alta -- | Baja -- ° F
--% Posibilidad de precipitaciones
Ayer
Alta -- | Baja -- ° F
Precip. -- pul
7:33 AM 5:16 PM
Creciente menguante, 12% visible
Presión 30.09 pul
Visibilidad 10.0 Millas
Nubes Nubes dispersas 900 ft
Muy nublado 1600 ft
Vientos helados 36 ° F
Punto de rocío 27 ° F
Humedad 69%
Precipitaciones 0.00 pul
Espesor de la nieve No disponible.
UV 2 de una escala de 12
Polen .40 de una escala de 12
Calidad del aire No disponible.
Flu Activity No disponible.
METAR KGCN 182054Z 00000KT 10SM SCT009 BKN016 02/M02 A3011 RMK AO2 SLP188 T00171022 58017 $

More Conditions Fewer Conditions

Presión 30.09 pul
Visibilidad 10.0 Millas
Nubes Nubes dispersas 900 ft
Muy nublado 1600 ft
Vientos helados 36 ° F
Punto de rocío 27 ° F
Humedad 69%
Precipitaciones 0.00 pul
Espesor de la nieve No disponible.
UV 2 de una escala de 12
Polen .40 de una escala de 12
Calidad del aire No disponible.
Flu Activity No disponible.
METAR KGCN 182054Z 00000KT 10SM SCT009 BKN016 02/M02 A3011 RMK AO2 SLP188 T00171022 58017 $

More Conditions Fewer Conditions

10-Day Weather Forecast

Almanac

Astronomía

Dec. 18, 2014 Salida Puesta
Hora real
Crepúsculo civil
Crepúsculo náutico
Crepúsculo astronómico
Luna
Horas de luz
Horas de luz
Tomorrow will be .
, % of the Moon is Illuminated

Extremos de hoy

Máximos del estado Bajos del estado

Community

WunderPhotos

Upload Photos

1,779,000 ¡fotos cargadas!

WunderBlogs® & News

Nearby

Calidad del aire

  Calidad del aire Índice AQ Contaminante
Not available.

Grosos de nieve

Estación Profundido Altura

Actividad de terremotos

Ciudad Distance Mag. Tiempo y dato
Magnitud mínima muestra es 2,5.

Temperaturas de aguas costeras

Lugar Temperatura

Estaciones meteorológicas cercanas